PSCJT SBMO-SBJP
Flight info
| Callsign | PSCJT |
|---|---|
| Flight time | 0h 36m |
| Altitude | 21000 |
| Route | UKARI Z35 REC |
| Aircraft | C550/M-SDFGR/S |
Departure
| Time | 2026-04-15 19:00 |
|---|---|
| Airport | Zumbi dos Palmares International Airport (SBMO) |
Arrival
| Time | 2026-04-15 19:36 |
|---|---|
| Airport | Presidente Castro Pinto International Airport (SBJP) |
| Time | Latitude | Longitude | Altitude | Speed | Heading |
|---|---|---|---|---|---|
| 2026-04-15 18:47 | -9.51277 | -35.79952 | 390 ft | 0 kts | 11° |
| 2026-04-15 18:48 | -9.51276 | -35.79952 | 390 ft | 0 kts | 11° |
| 2026-04-15 18:49 | -9.51260 | -35.79942 | 390 ft | 5 kts | 66° |
| 2026-04-15 18:50 | -9.51249 | -35.79919 | 390 ft | 4 kts | 14° |
| 2026-04-15 18:50 | -9.51189 | -35.79909 | 390 ft | 13 kts | 9° |
| 2026-04-15 18:50 | -9.51105 | -35.79905 | 390 ft | 8 kts | 306° |
| 2026-04-15 18:50 | -9.51091 | -35.79986 | 390 ft | 16 kts | 279° |
| 2026-04-15 18:51 | -9.51070 | -35.80119 | 390 ft | 19 kts | 278° |
| 2026-04-15 18:51 | -9.51052 | -35.80237 | 390 ft | 14 kts | 279° |
| 2026-04-15 18:51 | -9.51041 | -35.80303 | 390 ft | 5 kts | 279° |
| 2026-04-15 18:51 | -9.51035 | -35.80346 | 390 ft | 9 kts | 279° |
| 2026-04-15 18:52 | -9.51027 | -35.80394 | 390 ft | 6 kts | 279° |
| 2026-04-15 18:52 | -9.51044 | -35.80288 | 390 ft | 87 kts | 279° |
| 2026-04-15 18:52 | -9.51025 | -35.80410 | 390 ft | 19 kts | 279° |
| 2026-04-15 18:52 | -9.50995 | -35.80495 | 390 ft | 7 kts | 330° |
| 2026-04-15 18:53 | -9.50976 | -35.80497 | 390 ft | 2 kts | 4° |
| 2026-04-15 18:53 | -9.50949 | -35.80494 | 390 ft | 8 kts | 11° |
| 2026-04-15 18:53 | -9.50894 | -35.80482 | 390 ft | 5 kts | 11° |
| 2026-04-15 18:53 | -9.50845 | -35.80475 | 390 ft | 9 kts | 36° |
| 2026-04-15 18:54 | -9.50845 | -35.80439 | 390 ft | 3 kts | 99° |
| 2026-04-15 18:54 | -9.50845 | -35.80438 | 390 ft | 0 kts | 99° |
| 2026-04-15 18:55 | -9.50845 | -35.80437 | 390 ft | 0 kts | 99° |
| 2026-04-15 18:57 | -9.50845 | -35.80436 | 390 ft | 0 kts | 99° |
| 2026-04-15 18:59 | -9.50845 | -35.80435 | 390 ft | 0 kts | 99° |
| 2026-04-15 18:59 | -9.50846 | -35.80434 | 390 ft | 1 kts | 99° |
| 2026-04-15 19:00 | -9.50879 | -35.80225 | 390 ft | 89 kts | 99° |
| 2026-04-15 19:00 | -9.51035 | -35.79243 | 840 ft | 174 kts | 99° |
| 2026-04-15 19:00 | -9.51271 | -35.77757 | 1761 ft | 253 kts | 99° |
| 2026-04-15 19:00 | -9.51574 | -35.75918 | 3577 ft | 267 kts | 99° |
| 2026-04-15 19:01 | -9.51609 | -35.73996 | 4044 ft | 277 kts | 82° |
| 2026-04-15 19:01 | -9.50854 | -35.72200 | 3775 ft | 281 kts | 52° |
| 2026-04-15 19:01 | -9.49369 | -35.70878 | 4062 ft | 289 kts | 34° |
| 2026-04-15 19:01 | -9.47628 | -35.69808 | 4294 ft | 291 kts | 29° |
| 2026-04-15 19:02 | -9.45823 | -35.68841 | 4509 ft | 291 kts | 27° |
| 2026-04-15 19:02 | -9.44005 | -35.67913 | 4709 ft | 290 kts | 26° |
| 2026-04-15 19:02 | -9.42221 | -35.67019 | 5087 ft | 289 kts | 26° |
| 2026-04-15 19:02 | -9.40381 | -35.66101 | 5461 ft | 289 kts | 26° |
| 2026-04-15 19:03 | -9.38563 | -35.65196 | 5838 ft | 288 kts | 26° |
| 2026-04-15 19:03 | -9.36754 | -35.64283 | 6214 ft | 287 kts | 27° |
| 2026-04-15 19:03 | -9.34962 | -35.63353 | 6589 ft | 288 kts | 27° |
| 2026-04-15 19:03 | -9.33151 | -35.62404 | 6967 ft | 289 kts | 27° |
| 2026-04-15 19:04 | -9.31338 | -35.61451 | 7345 ft | 292 kts | 27° |
| 2026-04-15 19:04 | -9.29528 | -35.60499 | 7720 ft | 295 kts | 27° |
| 2026-04-15 19:04 | -9.27711 | -35.59545 | 8095 ft | 298 kts | 27° |
| 2026-04-15 19:04 | -9.25866 | -35.58577 | 8473 ft | 301 kts | 27° |
| 2026-04-15 19:05 | -9.24028 | -35.57615 | 8848 ft | 302 kts | 27° |
| 2026-04-15 19:05 | -9.22181 | -35.56649 | 9224 ft | 302 kts | 27° |
| 2026-04-15 19:05 | -9.20328 | -35.55680 | 9602 ft | 300 kts | 27° |
| 2026-04-15 19:05 | -9.18469 | -35.54710 | 9979 ft | 300 kts | 27° |
| 2026-04-15 19:06 | -9.16600 | -35.53735 | 10357 ft | 300 kts | 27° |
| 2026-04-15 19:06 | -9.14721 | -35.52755 | 10736 ft | 301 kts | 27° |
| 2026-04-15 19:06 | -9.12839 | -35.51773 | 11112 ft | 305 kts | 27° |
| 2026-04-15 19:06 | -9.10947 | -35.50787 | 11487 ft | 309 kts | 27° |
| 2026-04-15 19:07 | -9.09045 | -35.49796 | 11863 ft | 311 kts | 27° |
| 2026-04-15 19:07 | -9.07139 | -35.48802 | 12239 ft | 311 kts | 27° |
| 2026-04-15 19:07 | -9.05222 | -35.47803 | 12617 ft | 310 kts | 27° |
| 2026-04-15 19:07 | -9.03299 | -35.46802 | 12996 ft | 309 kts | 27° |
| 2026-04-15 19:08 | -9.01370 | -35.45797 | 13374 ft | 311 kts | 27° |
| 2026-04-15 19:08 | -8.99433 | -35.44788 | 13749 ft | 315 kts | 27° |
| 2026-04-15 19:08 | -8.97493 | -35.43778 | 14122 ft | 319 kts | 27° |
| 2026-04-15 19:08 | -8.95546 | -35.42764 | 14496 ft | 319 kts | 27° |
| 2026-04-15 19:09 | -8.93564 | -35.41732 | 14879 ft | 317 kts | 27° |
| 2026-04-15 19:09 | -8.91589 | -35.40704 | 15258 ft | 317 kts | 27° |
| 2026-04-15 19:09 | -8.89610 | -35.39673 | 15634 ft | 322 kts | 27° |
| 2026-04-15 19:09 | -8.87619 | -35.38637 | 16008 ft | 325 kts | 27° |
| 2026-04-15 19:10 | -8.85620 | -35.37596 | 16385 ft | 325 kts | 27° |
| 2026-04-15 19:10 | -8.84571 | -35.37049 | 16584 ft | 323 kts | 27° |
| 2026-04-15 19:10 | -8.82933 | -35.36155 | 16898 ft | 326 kts | 30° |
| 2026-04-15 19:11 | -8.80976 | -35.34983 | 17288 ft | 325 kts | 31° |
| 2026-04-15 19:11 | -8.79048 | -35.33775 | 17664 ft | 329 kts | 32° |
| 2026-04-15 19:11 | -8.77095 | -35.32529 | 18043 ft | 333 kts | 32° |
| 2026-04-15 19:11 | -8.75145 | -35.31280 | 18422 ft | 333 kts | 32° |
| 2026-04-15 19:12 | -8.73192 | -35.30031 | 18800 ft | 332 kts | 32° |
| 2026-04-15 19:12 | -8.71221 | -35.28774 | 19177 ft | 336 kts | 32° |
| 2026-04-15 19:12 | -8.69243 | -35.27517 | 19553 ft | 339 kts | 32° |
| 2026-04-15 19:12 | -8.67246 | -35.26253 | 19933 ft | 338 kts | 32° |
| 2026-04-15 19:13 | -8.65242 | -35.24988 | 20310 ft | 340 kts | 32° |
| 2026-04-15 19:13 | -8.63228 | -35.23720 | 20686 ft | 344 kts | 32° |
| 2026-04-15 19:13 | -8.61199 | -35.22444 | 20937 ft | 347 kts | 32° |
| 2026-04-15 19:13 | -8.59139 | -35.21152 | 21002 ft | 350 kts | 32° |
| 2026-04-15 19:14 | -8.57044 | -35.19838 | 21005 ft | 356 kts | 32° |
| 2026-04-15 19:14 | -8.54942 | -35.18521 | 21002 ft | 361 kts | 32° |
| 2026-04-15 19:14 | -8.52803 | -35.17182 | 21000 ft | 362 kts | 31° |
| 2026-04-15 19:14 | -8.50663 | -35.15843 | 20950 ft | 363 kts | 31° |
| 2026-04-15 19:15 | -8.48494 | -35.14486 | 20916 ft | 369 kts | 32° |
| 2026-04-15 19:15 | -8.46312 | -35.13123 | 20904 ft | 373 kts | 32° |
| 2026-04-15 19:15 | -8.44098 | -35.11739 | 20902 ft | 373 kts | 32° |
| 2026-04-15 19:15 | -8.41913 | -35.10374 | 20900 ft | 373 kts | 31° |
| 2026-04-15 19:16 | -8.39675 | -35.08976 | 20892 ft | 377 kts | 31° |
| 2026-04-15 19:16 | -8.37452 | -35.07588 | 20891 ft | 376 kts | 31° |
| 2026-04-15 19:16 | -8.35225 | -35.06196 | 20890 ft | 375 kts | 31° |
| 2026-04-15 19:16 | -8.33010 | -35.04813 | 20888 ft | 378 kts | 31° |
| 2026-04-15 19:17 | -8.30765 | -35.03411 | 20887 ft | 379 kts | 31° |
| 2026-04-15 19:17 | -8.28530 | -35.02016 | 20886 ft | 377 kts | 31° |
| 2026-04-15 19:17 | -8.26297 | -35.00622 | 20884 ft | 376 kts | 31° |
| 2026-04-15 19:17 | -8.24082 | -34.99239 | 20882 ft | 378 kts | 31° |
| 2026-04-15 19:18 | -8.21847 | -34.97844 | 20882 ft | 376 kts | 31° |
| 2026-04-15 19:18 | -8.19619 | -34.96453 | 20882 ft | 375 kts | 31° |
| 2026-04-15 19:18 | -8.15187 | -34.93687 | 20881 ft | 375 kts | 31° |
| 2026-04-15 19:19 | -8.12957 | -34.92307 | 20880 ft | 374 kts | 29° |
| 2026-04-15 19:19 | -8.10519 | -34.91389 | 20877 ft | 377 kts | 10° |
| 2026-04-15 19:19 | -8.07932 | -34.91305 | 20900 ft | 374 kts | 355° |
| 2026-04-15 19:19 | -8.05349 | -34.91697 | 20905 ft | 374 kts | 348° |
| 2026-04-15 19:20 | -8.02800 | -34.92290 | 20901 ft | 375 kts | 345° |
| 2026-04-15 19:20 | -8.00273 | -34.92915 | 20897 ft | 373 kts | 346° |
| 2026-04-15 19:20 | -7.97747 | -34.93529 | 20891 ft | 374 kts | 346° |
| 2026-04-15 19:20 | -7.95223 | -34.94137 | 20887 ft | 377 kts | 346° |
| 2026-04-15 19:21 | -7.92675 | -34.94748 | 20890 ft | 374 kts | 346° |
| 2026-04-15 19:21 | -7.90980 | -34.95154 | 20889 ft | 377 kts | 346° |
| 2026-04-15 19:21 | -7.88456 | -34.95759 | 20904 ft | 377 kts | 346° |
| 2026-04-15 19:21 | -7.85904 | -34.96370 | 20910 ft | 375 kts | 346° |
| 2026-04-15 19:22 | -7.83360 | -34.96981 | 20905 ft | 375 kts | 346° |
| 2026-04-15 19:22 | -7.80811 | -34.97592 | 20465 ft | 375 kts | 346° |
| 2026-04-15 19:22 | -7.78265 | -34.98204 | 20010 ft | 376 kts | 346° |
| 2026-04-15 19:22 | -7.75728 | -34.98814 | 19559 ft | 376 kts | 346° |
| 2026-04-15 19:23 | -7.73197 | -34.99423 | 19108 ft | 375 kts | 346° |
| 2026-04-15 19:23 | -7.70686 | -35.00027 | 18659 ft | 371 kts | 347° |
| 2026-04-15 19:23 | -7.68214 | -35.00623 | 18211 ft | 368 kts | 347° |
| 2026-04-15 19:23 | -7.65727 | -35.01221 | 17757 ft | 364 kts | 347° |
| 2026-04-15 19:24 | -7.63274 | -35.01812 | 17307 ft | 361 kts | 347° |
| 2026-04-15 19:24 | -7.60842 | -35.02398 | 16856 ft | 358 kts | 347° |
| 2026-04-15 19:24 | -7.58434 | -35.02977 | 16407 ft | 355 kts | 347° |
| 2026-04-15 19:24 | -7.56021 | -35.03558 | 15954 ft | 352 kts | 347° |
| 2026-04-15 19:25 | -7.53637 | -35.04132 | 15504 ft | 349 kts | 347° |
| 2026-04-15 19:25 | -7.51271 | -35.04701 | 15052 ft | 346 kts | 347° |
| 2026-04-15 19:25 | -7.48941 | -35.05262 | 14604 ft | 344 kts | 347° |
| 2026-04-15 19:25 | -7.46597 | -35.05827 | 14150 ft | 341 kts | 347° |
| 2026-04-15 19:26 | -7.44281 | -35.06385 | 13699 ft | 339 kts | 347° |
| 2026-04-15 19:26 | -7.41976 | -35.06939 | 13247 ft | 337 kts | 347° |
| 2026-04-15 19:26 | -7.39703 | -35.07487 | 12798 ft | 335 kts | 347° |
| 2026-04-15 19:26 | -7.37416 | -35.08037 | 12345 ft | 333 kts | 346° |
| 2026-04-15 19:27 | -7.35154 | -35.08581 | 11893 ft | 332 kts | 346° |
| 2026-04-15 19:27 | -7.32904 | -35.09123 | 11439 ft | 331 kts | 346° |
| 2026-04-15 19:27 | -7.30683 | -35.09657 | 10990 ft | 331 kts | 346° |
| 2026-04-15 19:27 | -7.28449 | -35.10194 | 10536 ft | 330 kts | 346° |
| 2026-04-15 19:28 | -7.26237 | -35.10726 | 10085 ft | 329 kts | 346° |
| 2026-04-15 19:28 | -7.24041 | -35.11255 | 9637 ft | 326 kts | 346° |
| 2026-04-15 19:28 | -7.21864 | -35.11778 | 9190 ft | 321 kts | 346° |
| 2026-04-15 19:28 | -7.19674 | -35.12305 | 8735 ft | 317 kts | 346° |
| 2026-04-15 19:29 | -7.17526 | -35.12822 | 8275 ft | 314 kts | 346° |
| 2026-04-15 19:29 | -7.15410 | -35.13331 | 7874 ft | 313 kts | 346° |
| 2026-04-15 19:29 | -7.13325 | -35.13832 | 7474 ft | 311 kts | 346° |
| 2026-04-15 19:29 | -7.11255 | -35.14331 | 7074 ft | 306 kts | 346° |
| 2026-04-15 19:30 | -7.09199 | -35.14824 | 6676 ft | 300 kts | 348° |
| 2026-04-15 19:30 | -7.07116 | -35.14841 | 6257 ft | 298 kts | 12° |
| 2026-04-15 19:30 | -7.05232 | -35.13973 | 5881 ft | 298 kts | 37° |
| 2026-04-15 19:30 | -7.03881 | -35.12412 | 5518 ft | 298 kts | 58° |
| 2026-04-15 19:31 | -7.03011 | -35.10539 | 5150 ft | 298 kts | 69° |
| 2026-04-15 19:31 | -7.02542 | -35.09098 | 4880 ft | 292 kts | 73° |
| 2026-04-15 19:31 | -7.02252 | -35.07864 | 4702 ft | 285 kts | 81° |
| 2026-04-15 19:31 | -7.02434 | -35.06169 | 4347 ft | 219 kts | 110° |
| 2026-04-15 19:32 | -7.03300 | -35.05112 | 3924 ft | 180 kts | 147° |
| 2026-04-15 19:32 | -7.04345 | -35.04603 | 3553 ft | 155 kts | 149° |
| 2026-04-15 19:32 | -7.05160 | -35.03982 | 3191 ft | 139 kts | 140° |
| 2026-04-15 19:32 | -7.05891 | -35.03378 | 3064 ft | 134 kts | 141° |
| 2026-04-15 19:33 | -7.06620 | -35.02821 | 2679 ft | 128 kts | 143° |
| 2026-04-15 19:33 | -7.07333 | -35.02310 | 2226 ft | 124 kts | 145° |
| 2026-04-15 19:33 | -7.08027 | -35.01826 | 1772 ft | 120 kts | 144° |
| 2026-04-15 19:33 | -7.08572 | -35.01204 | 1307 ft | 117 kts | 125° |
| 2026-04-15 19:34 | -7.09330 | -35.00430 | 1057 ft | 192 kts | 136° |
| 2026-04-15 19:34 | -7.10125 | -34.99714 | 1038 ft | 132 kts | 139° |
| 2026-04-15 19:34 | -7.10791 | -34.99116 | 877 ft | 126 kts | 137° |
| 2026-04-15 19:34 | -7.11400 | -34.98530 | 819 ft | 120 kts | 135° |
| 2026-04-15 19:35 | -7.12007 | -34.97919 | 752 ft | 124 kts | 134° |
| 2026-04-15 19:35 | -7.12582 | -34.97340 | 724 ft | 107 kts | 135° |
| 2026-04-15 19:35 | -7.13093 | -34.96826 | 564 ft | 102 kts | 134° |
| 2026-04-15 19:35 | -7.13577 | -34.96331 | 429 ft | 97 kts | 135° |
| 2026-04-15 19:36 | -7.14022 | -34.95889 | 267 ft | 84 kts | 135° |
| 2026-04-15 19:36 | -7.14418 | -34.95495 | 218 ft | 58 kts | 135° |
| 2026-04-15 19:36 | -7.14546 | -34.95371 | 218 ft | 17 kts | 137° |
| 2026-04-15 19:36 | -7.14569 | -34.95346 | 218 ft | 12 kts | 116° |
| 2026-04-15 19:37 | -7.14567 | -34.95321 | 218 ft | 3 kts | 55° |
| 2026-04-15 19:37 | -7.14518 | -34.95298 | 218 ft | 5 kts | 19° |
| 2026-04-15 19:37 | -7.14506 | -34.95294 | 218 ft | 0 kts | 19° |
| 2026-04-15 19:37 | -7.14471 | -34.95282 | 218 ft | 11 kts | 24° |
| 2026-04-15 19:38 | -7.14396 | -34.95184 | 218 ft | 15 kts | 113° |
| 2026-04-15 19:38 | -7.14406 | -34.95106 | 218 ft | 15 kts | 90° |
| 2026-04-15 19:38 | -7.14407 | -34.95025 | 218 ft | 6 kts | 30° |
| 2026-04-15 19:38 | -7.14398 | -34.95023 | 218 ft | 0 kts | 0° |